createdAt,value
2023-01-31T00:01:11.915Z,98077.30
2023-01-31T00:03:39.005Z,98074.67
2023-01-31T00:06:15.132Z,98076.48
2023-01-31T00:08:42.214Z,98079.56
2023-01-31T00:11:09.810Z,98073.88
2023-01-31T00:13:37.691Z,98070.98
2023-01-31T00:16:04.838Z,98073.16
2023-01-31T00:18:31.630Z,98071.27
2023-01-31T00:20:58.524Z,98068.21
2023-01-31T00:23:25.187Z,98072.29
2023-01-31T00:25:53.011Z,98068.30
2023-01-31T00:28:19.750Z,98069.15
2023-01-31T00:30:46.372Z,98067.77
2023-01-31T00:33:12.984Z,98067.02
2023-01-31T00:35:40.847Z,98066.25
2023-01-31T00:38:07.449Z,98067.51
2023-01-31T00:40:36.475Z,98067.85
2023-01-31T00:43:03.478Z,98067.92
2023-01-31T00:45:30.479Z,98067.77
2023-01-31T00:47:57.320Z,98071.09
2023-01-31T00:50:24.996Z,98070.17
2023-01-31T00:52:51.576Z,98066.98
2023-01-31T00:55:18.685Z,98071.43
2023-01-31T00:57:45.669Z,98073.45
2023-01-31T01:00:14.070Z,98070.89
2023-01-31T01:02:40.998Z,98073.55
2023-01-31T01:05:08.013Z,98074.25
2023-01-31T01:07:35.926Z,98075.46
2023-01-31T01:10:03.811Z,98074.17
2023-01-31T01:12:30.658Z,98072.36
2023-01-31T01:14:57.393Z,98064.47
2023-01-31T01:17:24.618Z,98069.29
2023-01-31T01:19:51.477Z,98070.58
2023-01-31T01:22:18.082Z,98072.54
2023-01-31T01:24:44.820Z,98071.77
2023-01-31T01:27:11.930Z,98072.33
2023-01-31T01:29:38.657Z,98071.04
2023-01-31T01:32:06.060Z,98070.17
2023-01-31T01:34:33.585Z,98066.45
2023-01-31T01:37:00.328Z,98070.07
2023-01-31T01:39:30.192Z,98075.09
2023-01-31T01:41:58.151Z,98074.58
2023-01-31T01:44:47.080Z,98071.67
2023-01-31T01:47:35.147Z,98076.70
2023-01-31T01:50:21.808Z,98073.27
2023-01-31T01:53:16.226Z,98069.97
2023-01-31T01:55:53.019Z,98071.02
2023-01-31T01:58:25.166Z,98077.29
2023-01-31T02:00:51.802Z,98076.27
2023-01-31T02:03:18.708Z,98075.05
2023-01-31T02:05:47.769Z,98071.80
2023-01-31T02:08:17.626Z,98073.84
2023-01-31T02:11:09.909Z,98071.42
2023-01-31T02:13:39.756Z,98067.36
2023-01-31T02:16:13.143Z,98067.80
2023-01-31T02:18:39.984Z,98066.83
2023-01-31T02:21:25.193Z,98072.38
2023-01-31T02:24:29.968Z,98070.80
2023-01-31T02:27:23.283Z,98073.89
2023-01-31T02:30:05.480Z,98078.95
2023-01-31T02:32:47.381Z,98080.52
2023-01-31T02:35:49.897Z,98081.88
2023-01-31T02:38:31.688Z,98078.83
2023-01-31T02:41:04.420Z,98075.59
2023-01-31T02:43:59.208Z,98072.03
2023-01-31T02:46:59.949Z,98074.46
2023-01-31T02:49:35.703Z,98078.17
2023-01-31T02:52:34.741Z,98080.23
2023-01-31T02:55:56.442Z,98082.73
2023-01-31T02:58:25.220Z,98088.02
2023-01-31T03:00:52.967Z,98088.57
2023-01-31T03:03:25.155Z,98089.30
2023-01-31T03:06:33.113Z,98091.29
2023-01-31T03:09:04.270Z,98096.62
2023-01-31T03:11:49.176Z,98098.05
2023-01-31T03:14:36.372Z,98096.75
2023-01-31T03:17:32.897Z,98093.11
2023-01-31T03:20:09.281Z,98087.52
2023-01-31T03:22:44.973Z,98088.18
2023-01-31T03:25:13.432Z,98088.80
2023-01-31T03:27:43.347Z,98091.94
2023-01-31T03:30:16.290Z,98095.06
2023-01-31T03:33:10.912Z,98093.92
2023-01-31T03:35:38.900Z,98087.33
2023-01-31T03:38:25.021Z,98089.56
2023-01-31T03:41:03.325Z,98084.92
2023-01-31T03:43:37.738Z,98089.70
2023-01-31T03:46:11.028Z,98092.26
2023-01-31T03:48:41.282Z,98094.02
2023-01-31T03:51:10.221Z,98095.52
2023-01-31T03:54:01.586Z,98091.25
2023-01-31T03:56:37.463Z,98096.12
2023-01-31T03:59:16.965Z,98097.77
2023-01-31T04:01:48.561Z,98095.30
2023-01-31T04:04:23.739Z,98102.55
2023-01-31T04:06:50.324Z,98107.47
2023-01-31T04:09:17.597Z,98108.37
2023-01-31T04:11:48.856Z,98115.42
2023-01-31T04:14:16.291Z,98115.42
2023-01-31T04:16:43.060Z,98107.13
2023-01-31T04:19:09.656Z,98108.50
2023-01-31T04:21:36.872Z,98117.92
2023-01-31T04:24:03.719Z,98124.70
2023-01-31T04:26:30.802Z,98121.20
2023-01-31T04:28:57.692Z,98124.81
2023-01-31T04:31:24.309Z,98118.92
2023-01-31T04:33:51.308Z,98121.56
2023-01-31T04:36:18.172Z,98128.68
2023-01-31T04:38:44.733Z,98127.93
2023-01-31T04:41:11.397Z,98128.38
2023-01-31T04:43:38.020Z,98126.98
2023-01-31T04:46:04.600Z,98132.48
2023-01-31T04:48:31.828Z,98132.30
2023-01-31T04:50:59.599Z,98135.58
2023-01-31T04:53:26.541Z,98141.46
2023-01-31T04:55:56.477Z,98146.95
2023-01-31T04:58:23.486Z,98146.53
2023-01-31T05:00:50.113Z,98149.73
2023-01-31T05:03:16.870Z,98154.16
2023-01-31T05:05:43.499Z,98151.84
2023-01-31T05:08:10.406Z,98151.95
2023-01-31T05:10:38.745Z,98151.30
2023-01-31T05:13:06.163Z,98150.58
2023-01-31T05:15:34.058Z,98150.01
2023-01-31T05:18:04.537Z,98150.91
2023-01-31T05:20:40.367Z,98150.32
2023-01-31T05:23:07.072Z,98152.27
2023-01-31T05:25:34.621Z,98151.06
2023-01-31T05:28:01.650Z,98153.32
2023-01-31T05:30:29.084Z,98154.83
2023-01-31T05:32:56.534Z,98154.88
2023-01-31T05:35:23.563Z,98160.22
2023-01-31T05:37:53.313Z,98160.71
2023-01-31T05:40:20.022Z,98162.45
2023-01-31T05:42:57.219Z,98167.30
2023-01-31T05:45:24.028Z,98169.92
2023-01-31T05:47:51.039Z,98169.01
2023-01-31T05:50:18.381Z,98172.49
2023-01-31T05:53:02.978Z,98174.84
2023-01-31T05:55:29.973Z,98178.58
2023-01-31T05:57:56.825Z,98188.29
2023-01-31T06:00:23.600Z,98191.57
2023-01-31T06:02:50.377Z,98193.09
2023-01-31T06:05:19.829Z,98198.64
2023-01-31T06:07:49.473Z,98202.84
2023-01-31T06:10:16.694Z,98207.65
2023-01-31T06:12:43.399Z,98210.45
2023-01-31T06:15:10.551Z,98209.16
2023-01-31T06:17:37.712Z,98205.99
2023-01-31T06:20:04.876Z,98203.08
2023-01-31T06:22:31.824Z,98206.02
2023-01-31T06:24:58.614Z,98212.93
2023-01-31T06:27:31.917Z,98209.37
2023-01-31T06:29:59.301Z,98206.65
2023-01-31T06:32:26.099Z,98207.92
2023-01-31T06:34:52.669Z,98210.13
2023-01-31T06:37:19.387Z,98209.98
2023-01-31T06:39:46.081Z,98211.88
2023-01-31T06:42:12.668Z,98214.04
2023-01-31T06:44:39.307Z,98214.35
2023-01-31T06:47:06.144Z,98219.10
2023-01-31T06:49:32.893Z,98222.46
2023-01-31T06:52:00.863Z,98225.54
2023-01-31T06:54:27.564Z,98231.30
2023-01-31T06:56:54.847Z,98229.73
2023-01-31T06:59:21.639Z,98229.09
2023-01-31T07:01:48.719Z,98234.54
2023-01-31T07:04:15.646Z,98239.65
2023-01-31T07:06:42.292Z,98240.09
2023-01-31T07:09:10.888Z,98239.10
2023-01-31T07:11:38.198Z,98243.22
2023-01-31T07:14:07.020Z,98241.47
2023-01-31T07:16:37.133Z,98241.36
2023-01-31T07:19:05.262Z,98243.92
2023-01-31T07:21:32.829Z,98246.38
2023-01-31T07:24:00.146Z,98246.61
2023-01-31T07:26:26.902Z,98253.07
2023-01-31T07:28:53.548Z,98254.27
2023-01-31T07:31:20.402Z,98257.17
2023-01-31T07:33:47.124Z,98253.24
2023-01-31T07:36:14.854Z,98251.23
2023-01-31T07:38:42.130Z,98250.52
2023-01-31T07:41:09.351Z,98252.07
2023-01-31T07:43:36.221Z,98257.40
2023-01-31T07:46:08.399Z,98260.08
2023-01-31T07:48:35.126Z,98264.22
2023-01-31T07:57:23.506Z,98274.76
2023-01-31T07:59:50.223Z,98277.25
2023-01-31T08:02:35.801Z,98278.95
2023-01-31T08:05:03.278Z,98277.13
2023-01-31T08:07:30.731Z,98271.64
2023-01-31T08:09:57.472Z,98266.96
2023-01-31T08:12:24.214Z,98271.09
2023-01-31T08:14:51.827Z,98278.91
2023-01-31T08:17:18.616Z,98281.77
2023-01-31T08:19:46.414Z,98282.13
2023-01-31T08:22:13.104Z,98286.65
2023-01-31T08:24:39.938Z,98289.08
2023-01-31T08:27:06.606Z,98294.21
2023-01-31T08:29:33.871Z,98293.38
2023-01-31T08:32:02.705Z,98299.17
2023-01-31T08:34:32.896Z,98301.30
2023-01-31T08:37:00.716Z,98303.95
2023-01-31T08:39:27.699Z,98304.27
2023-01-31T08:41:54.348Z,98304.90
2023-01-31T08:44:21.082Z,98311.48
2023-01-31T08:46:48.140Z,98309.85
2023-01-31T08:49:15.296Z,98314.67
2023-01-31T08:51:44.670Z,98316.30
2023-01-31T08:54:12.413Z,98316.11
2023-01-31T08:56:39.209Z,98315.14
2023-01-31T08:59:05.868Z,98309.78
2023-01-31T09:01:34.817Z,98311.72
2023-01-31T09:04:01.681Z,98314.92
2023-01-31T09:06:29.265Z,98317.52
2023-01-31T09:08:59.419Z,98317.05
2023-01-31T09:11:27.615Z,98319.08
2023-01-31T09:13:55.372Z,98313.21
2023-01-31T09:16:23.081Z,98318.79
2023-01-31T09:18:51.041Z,98319.45
2023-01-31T09:21:19.739Z,98319.55
2023-01-31T09:23:47.038Z,98317.20
2023-01-31T09:26:14.614Z,98314.69
2023-01-31T09:28:42.814Z,98315.45
2023-01-31T09:31:15.696Z,98311.98
2023-01-31T09:33:43.100Z,98312.95
2023-01-31T09:36:11.844Z,98313.05
2023-01-31T09:38:39.847Z,98310.09
2023-01-31T09:41:29.990Z,98314.20
2023-01-31T09:44:05.155Z,98314.20
2023-01-31T09:46:37.293Z,98305.45
2023-01-31T09:49:06.308Z,98306.47
2023-01-31T09:51:37.201Z,98306.59
2023-01-31T09:54:13.143Z,98312.16
2023-01-31T09:56:50.746Z,98309.02
2023-01-31T09:59:55.113Z,98310.40
2023-01-31T10:03:08.473Z,98310.39
2023-01-31T10:05:46.096Z,98313.39
2023-01-31T10:08:47.541Z,98312.34
2023-01-31T10:11:37.774Z,98310.14
2023-01-31T10:14:31.751Z,98311.52
2023-01-31T10:17:07.733Z,98314.27
2023-01-31T10:19:54.723Z,98312.73
2023-01-31T10:22:43.974Z,98313.10
2023-01-31T10:25:20.669Z,98314.64
2023-01-31T10:27:49.958Z,98314.15
2023-01-31T10:30:48.257Z,98313.45
2023-01-31T10:33:28.851Z,98308.48
2023-01-31T10:35:56.605Z,98306.88
2023-01-31T10:39:02.107Z,98310.32
2023-01-31T10:41:38.203Z,98309.55
2023-01-31T10:44:07.221Z,98310.83
2023-01-31T10:46:34.404Z,98306.23
2023-01-31T10:49:02.431Z,98308.44
2023-01-31T10:51:55.893Z,98307.14
2023-01-31T10:54:56.674Z,98308.30
2023-01-31T10:57:23.418Z,98306.09
2023-01-31T10:59:50.099Z,98304.92
2023-01-31T11:02:22.220Z,98302.66
2023-01-31T11:04:51.139Z,98303.26
2023-01-31T11:07:18.486Z,98304.67
2023-01-31T11:09:51.340Z,98306.83
2023-01-31T11:12:21.521Z,98307.16
2023-01-31T11:15:06.118Z,98305.08
2023-01-31T11:17:33.276Z,98305.59
2023-01-31T11:19:59.898Z,98305.66
2023-01-31T11:22:30.841Z,98308.48
2023-01-31T11:24:59.185Z,98305.98
2023-01-31T11:27:34.337Z,98302.09
2023-01-31T11:30:02.183Z,98301.64
2023-01-31T11:32:31.324Z,98300.04
2023-01-31T11:35:05.041Z,98301.73
2023-01-31T11:37:34.425Z,98302.73
2023-01-31T11:40:05.219Z,98303.10
2023-01-31T11:42:32.064Z,98313.06
2023-01-31T11:45:03.962Z,98316.35
2023-01-31T11:47:39.948Z,98322.21
2023-01-31T11:50:07.529Z,98318.45
2023-01-31T11:52:34.360Z,98313.39
2023-01-31T11:55:07.108Z,98311.58
2023-01-31T11:57:35.372Z,98311.83
2023-01-31T12:00:06.063Z,98308.60
2023-01-31T12:02:38.936Z,98309.35
2023-01-31T12:05:17.218Z,98307.02
2023-01-31T12:07:49.720Z,98309.69
2023-01-31T12:10:41.254Z,98306.70
2023-01-31T12:13:19.265Z,98305.64
2023-01-31T12:16:01.148Z,98300.91
2023-01-31T12:18:50.725Z,98307.95
2023-01-31T12:32:48.871Z,98323.11
2023-01-31T12:35:38.018Z,98321.46
2023-01-31T12:38:32.914Z,98326.27
2023-01-31T12:41:06.857Z,98326.97
2023-01-31T12:43:52.529Z,98331.49
2023-01-31T12:46:25.560Z,98330.43
2023-01-31T12:49:04.936Z,98328.17
2023-01-31T12:51:41.228Z,98331.44
2023-01-31T12:54:22.774Z,98332.52
2023-01-31T12:56:55.458Z,98332.16
2023-01-31T12:59:50.477Z,98332.89
2023-01-31T13:02:40.962Z,98331.70
2023-01-31T13:05:30.831Z,98326.05
2023-01-31T13:08:17.146Z,98326.96
2023-01-31T13:11:07.190Z,98333.02
2023-01-31T14:22:41.907Z,98353.02
2023-01-31T14:25:08.644Z,98359.48
2023-01-31T14:27:36.369Z,98358.35
2023-01-31T14:30:06.099Z,98361.92
2023-01-31T14:33:08.693Z,98369.82
2023-01-31T14:36:00.558Z,98374.39
2023-01-31T14:38:48.889Z,98372.58
2023-01-31T14:41:37.397Z,98374.46
2023-01-31T14:44:37.954Z,98375.35
2023-01-31T14:47:17.744Z,98373.05
2023-01-31T14:50:03.238Z,98373.41
2023-01-31T14:52:35.921Z,98372.18
2023-01-31T14:55:27.305Z,98371.27
2023-01-31T14:57:57.885Z,98373.88
2023-01-31T15:00:29.217Z,98374.98
2023-01-31T15:03:19.076Z,98377.23
2023-01-31T15:05:55.042Z,98379.15
2023-01-31T15:08:25.096Z,98380.41
2023-01-31T15:11:40.731Z,98380.45
2023-01-31T15:14:34.162Z,98387.43
2023-01-31T15:17:32.047Z,98390.17
2023-01-31T15:20:18.234Z,98388.83
2023-01-31T15:22:44.948Z,98393.34
2023-01-31T15:25:22.071Z,98398.80
2023-01-31T15:27:49.410Z,98401.79
2023-01-31T15:30:20.421Z,98406.64
2023-01-31T15:32:49.776Z,98403.34
2023-01-31T15:35:30.547Z,98405.80
2023-01-31T15:38:22.046Z,98407.90
2023-01-31T15:41:05.625Z,98410.53
2023-01-31T15:43:38.298Z,98408.48
2023-01-31T15:46:21.502Z,98406.61
2023-01-31T15:48:48.406Z,98414.48
2023-01-31T15:51:15.397Z,98413.32
2023-01-31T15:53:42.262Z,98418.38
2023-01-31T15:56:23.768Z,98419.73
2023-01-31T15:58:55.438Z,98423.77
2023-01-31T16:01:22.361Z,98422.00
2023-01-31T16:03:50.959Z,98420.13
2023-01-31T16:06:31.689Z,98422.77
2023-01-31T16:09:01.217Z,98420.08
2023-01-31T16:11:32.967Z,98425.90
2023-01-31T16:14:02.805Z,98423.34
2023-01-31T16:16:29.841Z,98425.48
2023-01-31T16:18:57.952Z,98423.67
2023-01-31T16:21:31.717Z,98425.46
2023-01-31T16:24:11.878Z,98424.96
2023-01-31T16:27:13.319Z,98426.52
2023-01-31T16:29:47.967Z,98423.27
2023-01-31T16:32:23.601Z,98425.00
2023-01-31T16:35:00.981Z,98426.18
2023-01-31T16:37:38.737Z,98423.95
2023-01-31T16:40:17.604Z,98430.12
2023-01-31T16:42:44.470Z,98429.67
2023-01-31T16:45:31.975Z,98433.55
2023-01-31T16:48:21.240Z,98434.73
2023-01-31T16:50:49.445Z,98437.52
2023-01-31T16:53:26.432Z,98438.61
2023-01-31T16:56:19.461Z,98438.27
2023-01-31T16:58:50.699Z,98441.54
2023-01-31T17:01:21.511Z,98440.29
2023-01-31T17:03:59.766Z,98441.29
2023-01-31T17:06:26.422Z,98443.63
2023-01-31T17:08:56.436Z,98441.63
2023-01-31T17:11:39.615Z,98441.35
2023-01-31T17:14:10.154Z,98443.04
2023-01-31T17:16:36.818Z,98443.75
2023-01-31T17:19:03.840Z,98444.48
2023-01-31T17:21:32.406Z,98445.24
2023-01-31T17:23:59.126Z,98447.25
2023-01-31T17:26:25.733Z,98450.57
2023-01-31T17:29:01.578Z,98448.84
2023-01-31T17:31:30.730Z,98450.71
2023-01-31T17:34:00.905Z,98449.54
2023-01-31T17:36:27.695Z,98451.39
2023-01-31T17:38:54.441Z,98453.86
2023-01-31T17:41:23.888Z,98460.56
2023-01-31T17:43:50.512Z,98461.11
2023-01-31T17:46:17.984Z,98457.09
2023-01-31T17:48:44.714Z,98457.14
2023-01-31T17:51:12.049Z,98454.05
2023-01-31T17:53:47.831Z,98450.39
2023-01-31T17:56:17.379Z,98451.27
2023-01-31T17:58:44.129Z,98446.76
2023-01-31T18:01:13.282Z,98445.56
2023-01-31T18:03:40.027Z,98448.83
2023-01-31T18:06:07.602Z,98452.73
2023-01-31T18:08:34.615Z,98446.52
2023-01-31T18:11:05.900Z,98451.91
2023-01-31T18:13:32.730Z,98452.12
2023-01-31T18:16:25.052Z,98453.17
2023-01-31T18:18:53.138Z,98449.75
2023-01-31T18:21:21.096Z,98454.10
2023-01-31T18:23:51.973Z,98454.41
2023-01-31T18:26:19.007Z,98460.19
2023-01-31T18:28:46.066Z,98462.61
2023-01-31T18:31:14.539Z,98463.60
2023-01-31T18:33:43.202Z,98462.25
2023-01-31T18:36:12.906Z,98465.55
2023-01-31T18:38:42.006Z,98463.94
2023-01-31T18:41:10.390Z,98464.14
2023-01-31T18:43:37.571Z,98463.52
2023-01-31T18:46:04.665Z,98462.65
2023-01-31T18:48:31.714Z,98462.89
2023-01-31T18:51:06.648Z,98462.48
2023-01-31T18:53:34.649Z,98464.36
2023-01-31T18:56:05.558Z,98465.41
2023-01-31T18:58:33.701Z,98468.02
2023-01-31T19:01:17.012Z,98471.20
2023-01-31T19:03:44.486Z,98471.65
2023-01-31T19:06:13.353Z,98474.56
2023-01-31T19:08:40.264Z,98478.05
2023-01-31T19:11:12.095Z,98472.69
2023-01-31T19:13:39.810Z,98471.52
2023-01-31T19:16:08.300Z,98471.05
2023-01-31T19:18:35.168Z,98474.29
2023-01-31T19:21:03.080Z,98476.00
2023-01-31T19:23:29.762Z,98474.75
2023-01-31T19:25:56.369Z,98477.52
2023-01-31T19:28:24.185Z,98476.27
2023-01-31T19:30:51.559Z,98476.16
2023-01-31T19:33:18.853Z,98475.04
2023-01-31T19:35:45.814Z,98478.49
2023-01-31T19:38:13.460Z,98477.52
2023-01-31T19:40:42.047Z,98478.44
2023-01-31T19:43:08.973Z,98478.19
2023-01-31T19:45:35.681Z,98479.97
2023-01-31T19:48:02.468Z,98481.88
2023-01-31T19:50:30.891Z,98479.58
2023-01-31T19:52:57.570Z,98481.28
2023-01-31T19:55:24.227Z,98478.95
2023-01-31T19:57:53.471Z,98479.80
2023-01-31T20:00:20.459Z,98481.62
2023-01-31T20:02:47.822Z,98485.97
2023-01-31T20:05:15.065Z,98482.52
2023-01-31T20:07:42.118Z,98484.23
2023-01-31T20:10:10.509Z,98484.98
2023-01-31T20:12:37.552Z,98484.27
2023-01-31T20:15:06.170Z,98488.20
2023-01-31T20:17:33.694Z,98482.89
2023-01-31T20:20:00.853Z,98485.44
2023-01-31T20:22:28.371Z,98485.30
2023-01-31T20:24:56.523Z,98487.23
2023-01-31T20:27:24.398Z,98485.63
2023-01-31T20:29:51.549Z,98484.42
2023-01-31T20:32:18.423Z,98487.75
2023-01-31T20:34:45.314Z,98487.77
2023-01-31T20:37:12.237Z,98485.88
2023-01-31T20:39:38.893Z,98488.73
2023-01-31T20:42:05.574Z,98491.58
2023-01-31T20:44:32.461Z,98492.39
2023-01-31T20:46:59.138Z,98494.19
2023-01-31T20:49:26.920Z,98497.92
2023-01-31T20:51:53.678Z,98495.36
2023-01-31T20:54:20.813Z,98493.73
2023-01-31T20:56:47.793Z,98491.30
2023-01-31T20:59:14.426Z,98491.81
2023-01-31T21:01:42.661Z,98491.58
2023-01-31T21:04:09.295Z,98493.86
2023-01-31T21:06:39.570Z,98495.91
2023-01-31T21:09:06.248Z,98496.46
2023-01-31T21:11:32.936Z,98499.67
2023-01-31T21:13:59.705Z,98495.14
2023-01-31T21:16:26.483Z,98497.43
2023-01-31T21:18:53.564Z,98500.42
2023-01-31T21:21:23.465Z,98499.34
2023-01-31T21:23:54.336Z,98498.00
2023-01-31T21:26:21.497Z,98496.91
2023-01-31T21:28:48.295Z,98501.02
2023-01-31T21:31:16.898Z,98500.84
2023-01-31T21:33:50.680Z,98499.70
2023-01-31T21:36:19.351Z,98499.55
2023-01-31T21:38:46.332Z,98496.06
2023-01-31T21:41:32.823Z,98500.17
2023-01-31T21:43:59.650Z,98497.77
2023-01-31T21:46:26.457Z,98496.48
2023-01-31T21:48:54.962Z,98498.56
2023-01-31T21:51:24.027Z,98498.45
2023-01-31T21:53:50.901Z,98498.40
2023-01-31T21:56:19.586Z,98499.55
2023-01-31T21:58:46.432Z,98498.52
2023-01-31T22:01:17.224Z,98502.84
2023-01-31T22:03:44.656Z,98503.48
2023-01-31T22:06:12.445Z,98497.45
2023-01-31T22:08:39.326Z,98499.17
